createdAt,value
2019-03-12T00:01:57.753Z,8.30
2019-03-12T00:04:29.983Z,11.75
2019-03-12T00:07:02.210Z,11.93
2019-03-12T00:09:34.465Z,10.45
2019-03-12T00:12:06.691Z,5.50
2019-03-12T00:14:38.972Z,9.40
2019-03-12T00:17:11.254Z,12.13
2019-03-12T00:19:43.559Z,8.78
2019-03-12T00:22:15.816Z,7.78
2019-03-12T00:24:48.094Z,7.17
2019-03-12T00:27:20.383Z,10.75
2019-03-12T00:29:52.621Z,11.53
2019-03-12T00:32:24.935Z,8.38
2019-03-12T00:34:57.751Z,8.33
2019-03-12T00:37:30.004Z,10.55
2019-03-12T00:40:02.328Z,9.60
2019-03-12T00:42:34.604Z,9.20
2019-03-12T00:45:08.195Z,13.50
2019-03-12T00:47:41.359Z,6.55
2019-03-12T00:50:13.605Z,9.10
2019-03-12T00:52:45.859Z,14.83
2019-03-12T00:55:18.100Z,7.87
2019-03-12T00:57:50.342Z,8.78
2019-03-12T01:00:22.640Z,9.05
2019-03-12T01:02:54.902Z,8.65
2019-03-12T01:05:27.171Z,6.80
2019-03-12T01:07:59.398Z,9.05
2019-03-12T01:10:31.709Z,6.90
2019-03-12T01:13:05.480Z,8.13
2019-03-12T01:15:37.738Z,7.00
2019-03-12T01:18:09.966Z,9.98
2019-03-12T01:20:42.196Z,9.80
2019-03-12T01:23:14.456Z,9.35
2019-03-12T01:25:46.675Z,15.03
2019-03-12T01:28:18.947Z,10.40
2019-03-12T01:30:51.212Z,11.22
2019-03-12T01:33:23.465Z,13.60
2019-03-12T01:35:55.683Z,8.18
2019-03-12T01:38:27.945Z,7.00
2019-03-12T01:41:01.177Z,6.22
2019-03-12T01:43:35.426Z,9.35
2019-03-12T01:46:07.651Z,9.38
2019-03-12T01:48:39.880Z,9.83
2019-03-12T01:51:12.107Z,8.08
2019-03-12T01:53:44.364Z,9.73
2019-03-12T01:56:16.587Z,14.20
2019-03-12T01:58:49.920Z,8.20
2019-03-12T02:01:22.169Z,11.95
2019-03-12T02:03:54.445Z,8.78
2019-03-12T02:06:26.700Z,9.75
2019-03-12T02:08:58.998Z,7.72
2019-03-12T02:11:31.230Z,12.95
2019-03-12T02:14:05.041Z,8.10
2019-03-12T02:16:37.272Z,10.13
2019-03-12T02:19:09.538Z,11.48
2019-03-12T02:21:41.852Z,9.63
2019-03-12T02:24:14.148Z,8.98
2019-03-12T02:26:46.403Z,9.83
2019-03-12T02:29:18.704Z,8.88
2019-03-12T02:31:50.940Z,11.55
2019-03-12T02:34:23.201Z,11.03
2019-03-12T02:36:55.492Z,11.63
2019-03-12T02:39:27.732Z,7.62
2019-03-12T02:41:59.953Z,9.48
2019-03-12T02:44:32.207Z,10.03
2019-03-12T02:47:04.448Z,10.72
2019-03-12T02:49:36.741Z,7.62
2019-03-12T02:52:08.988Z,7.08
2019-03-12T02:54:41.237Z,7.37
2019-03-12T02:57:13.491Z,10.27
2019-03-12T02:59:45.721Z,7.75
2019-03-12T03:02:17.956Z,7.42
2019-03-12T03:04:54.120Z,10.30
2019-03-12T03:07:42.268Z,5.62
2019-03-12T03:10:15.126Z,10.23
2019-03-12T03:12:47.850Z,7.83
2019-03-12T03:15:21.731Z,8.70
2019-03-12T03:17:53.961Z,11.45
2019-03-12T03:20:26.210Z,4.37
2019-03-12T03:22:58.492Z,7.85
2019-03-12T03:25:30.780Z,13.88
2019-03-12T03:28:03.060Z,7.00
2019-03-12T03:30:35.310Z,11.12
2019-03-12T03:33:07.596Z,10.53
2019-03-12T03:35:39.894Z,10.68
2019-03-12T03:38:12.160Z,7.80
2019-03-12T03:40:44.456Z,10.55
2019-03-12T03:43:16.699Z,7.10
2019-03-12T03:45:48.943Z,10.75
2019-03-12T03:48:21.183Z,10.70
2019-03-12T03:50:53.442Z,12.55
2019-03-12T03:53:25.740Z,11.00
2019-03-12T03:55:58.016Z,13.10
2019-03-12T03:58:30.256Z,8.00
2019-03-12T04:01:02.580Z,14.28
2019-03-12T04:03:34.832Z,6.85
2019-03-12T04:06:07.157Z,9.88
2019-03-12T04:08:39.378Z,7.97
2019-03-12T04:11:11.625Z,12.47
2019-03-12T04:13:43.837Z,9.18
2019-03-12T04:16:17.040Z,12.07
2019-03-12T04:18:49.338Z,8.15
2019-03-12T04:21:21.574Z,9.73
2019-03-12T04:23:53.807Z,9.15
2019-03-12T04:26:26.079Z,11.45
2019-03-12T04:28:58.316Z,12.05
2019-03-12T04:31:30.577Z,5.97
2019-03-12T04:34:10.300Z,8.70
2019-03-12T04:36:42.603Z,9.33
2019-03-12T04:39:14.828Z,6.58
2019-03-12T04:41:47.075Z,8.50
2019-03-12T04:44:19.316Z,9.83
2019-03-12T04:46:51.575Z,11.63
2019-03-12T04:49:23.806Z,8.53
2019-03-12T04:51:56.143Z,10.55
2019-03-12T04:54:28.423Z,9.40
2019-03-12T04:57:00.674Z,13.65
2019-03-12T04:59:32.887Z,11.90
2019-03-12T05:02:05.140Z,6.85
2019-03-12T05:04:37.390Z,14.68
2019-03-12T05:07:09.621Z,6.70
2019-03-12T05:09:41.863Z,7.42
2019-03-12T05:12:14.112Z,7.45
2019-03-12T05:14:46.361Z,10.93
2019-03-12T05:17:19.583Z,9.50
2019-03-12T05:19:51.804Z,12.23
2019-03-12T05:22:24.055Z,8.53
2019-03-12T05:24:56.311Z,8.85
2019-03-12T05:27:28.570Z,11.20
2019-03-12T05:30:00.797Z,10.95
2019-03-12T05:32:33.048Z,11.22
2019-03-12T05:35:06.295Z,8.80
2019-03-12T05:37:38.584Z,10.78
2019-03-12T05:40:11.556Z,12.13
2019-03-12T05:42:43.994Z,9.10
2019-03-12T05:45:16.793Z,11.10
2019-03-12T05:47:49.069Z,8.78
2019-03-12T05:50:21.521Z,12.90
2019-03-12T05:52:55.291Z,7.97
2019-03-12T05:55:27.517Z,13.20
2019-03-12T05:57:59.775Z,8.40
2019-03-12T06:00:32.022Z,11.85
2019-03-12T06:03:04.278Z,9.60
2019-03-12T06:05:36.540Z,12.00
2019-03-12T06:08:08.944Z,10.35
2019-03-12T06:10:41.300Z,9.50
2019-03-12T06:13:13.604Z,11.25
2019-03-12T06:15:45.864Z,11.65
2019-03-12T06:18:18.113Z,10.63
2019-03-12T06:20:50.460Z,8.50
2019-03-12T06:23:22.818Z,10.30
2019-03-12T06:25:55.105Z,19.15
2019-03-12T06:28:27.377Z,13.20
2019-03-12T06:31:17.815Z,11.22
2019-03-12T06:33:54.431Z,13.83
2019-03-12T06:36:28.463Z,7.28
2019-03-12T06:39:17.492Z,11.90
2019-03-12T06:42:00.164Z,11.70
2019-03-12T06:44:34.099Z,10.68
2019-03-12T06:47:07.997Z,11.70
2019-03-12T06:49:44.550Z,7.05
2019-03-12T06:52:18.481Z,9.45
2019-03-12T06:55:07.475Z,10.75
2019-03-12T06:57:48.464Z,16.45
2019-03-12T07:00:38.437Z,13.80
2019-03-12T07:03:15.341Z,12.43
2019-03-12T07:06:07.051Z,10.68
2019-03-12T07:08:40.968Z,15.75
2019-03-12T07:11:30.784Z,14.70
2019-03-12T07:14:04.666Z,15.23
2019-03-12T07:16:38.533Z,13.32
2019-03-12T07:19:30.337Z,11.30
2019-03-12T07:22:04.209Z,10.70
2019-03-12T07:24:40.923Z,13.37
2019-03-12T07:27:14.805Z,15.53
2019-03-12T07:29:51.403Z,16.52
2019-03-12T07:32:41.661Z,18.02
2019-03-12T07:35:18.251Z,9.07
2019-03-12T07:38:07.014Z,12.78
2019-03-12T07:40:46.581Z,12.33
2019-03-12T07:43:36.603Z,13.60
2019-03-12T07:46:25.573Z,11.57
2019-03-12T07:49:05.584Z,12.88
2019-03-12T07:51:45.135Z,15.68
2019-03-12T07:54:19.063Z,10.08
2019-03-12T07:57:04.726Z,11.90
2019-03-12T07:59:41.519Z,8.75
2019-03-12T08:02:15.384Z,15.63
2019-03-12T08:04:57.949Z,12.73
2019-03-12T08:07:40.645Z,11.85
2019-03-12T08:10:17.412Z,10.18
2019-03-12T08:12:57.395Z,13.25
2019-03-12T08:15:50.633Z,14.10
2019-03-12T08:18:30.245Z,9.10
2019-03-12T08:21:21.888Z,10.23
2019-03-12T08:24:03.356Z,11.85
2019-03-12T08:26:43.001Z,11.30
2019-03-12T08:29:33.051Z,15.08
2019-03-12T08:32:23.952Z,13.03
2019-03-12T08:35:00.751Z,12.55
2019-03-12T08:37:34.625Z,11.57
2019-03-12T08:40:09.902Z,9.93
2019-03-12T08:42:54.027Z,12.60
2019-03-12T08:45:37.492Z,12.43
2019-03-12T08:48:12.839Z,9.20
2019-03-12T08:50:47.023Z,10.60
2019-03-12T08:53:26.623Z,18.05
2019-03-12T08:56:09.332Z,12.03
2019-03-12T08:58:43.235Z,13.40
2019-03-12T09:01:28.732Z,9.90
2019-03-12T09:04:05.368Z,15.43
2019-03-12T09:06:42.223Z,18.00
2019-03-12T09:09:16.177Z,17.92
2019-03-12T09:12:07.937Z,14.38
2019-03-12T09:14:47.538Z,13.05
2019-03-12T09:17:27.177Z,9.73
2019-03-12T09:20:06.935Z,16.07
2019-03-12T09:22:57.239Z,13.28
2019-03-12T09:25:42.925Z,18.40
2019-03-12T09:28:16.818Z,11.73
2019-03-12T09:30:53.395Z,9.15
2019-03-12T09:33:29.980Z,13.28
2019-03-12T09:36:20.230Z,13.45
2019-03-12T09:38:54.096Z,8.77
2019-03-12T09:41:39.579Z,12.58
2019-03-12T09:44:29.617Z,12.85
2019-03-12T09:47:13.479Z,7.13
2019-03-12T09:50:02.258Z,9.13
2019-03-12T09:52:36.292Z,9.88
2019-03-12T09:55:16.233Z,2.08
2019-03-12T09:58:01.808Z,10.13
2019-03-12T10:00:35.731Z,8.38
2019-03-12T10:03:27.808Z,6.75
2019-03-12T10:06:05.504Z,13.40
2019-03-12T10:08:54.450Z,10.45
2019-03-12T10:11:34.004Z,11.33
2019-03-12T10:14:24.235Z,11.63
2019-03-12T10:17:15.240Z,10.13
2019-03-12T10:19:49.579Z,10.45
2019-03-12T10:22:23.580Z,7.65
2019-03-12T10:24:57.461Z,6.55
2019-03-12T10:27:34.035Z,11.35
2019-03-12T10:30:25.451Z,13.72
2019-03-12T10:32:59.331Z,4.33
2019-03-12T10:35:45.253Z,10.65
2019-03-12T10:38:39.975Z,9.58
2019-03-12T10:41:14.015Z,13.22
2019-03-12T10:43:46.260Z,14.13
2019-03-12T10:46:20.169Z,13.05
2019-03-12T10:48:52.419Z,12.80
2019-03-12T10:51:24.652Z,10.63
2019-03-12T10:53:56.916Z,11.48
2019-03-12T10:56:29.216Z,12.55
2019-03-12T10:59:01.455Z,9.45
2019-03-12T11:01:33.706Z,15.28
2019-03-12T11:04:05.964Z,13.98
2019-03-12T11:06:38.205Z,12.13
2019-03-12T11:09:10.469Z,13.32
2019-03-12T11:11:42.700Z,9.48
2019-03-12T11:14:15.110Z,10.25
2019-03-12T11:16:47.349Z,11.75
2019-03-12T11:19:19.590Z,7.83
2019-03-12T11:21:51.845Z,11.68
2019-03-12T11:24:24.108Z,7.33
2019-03-12T11:26:56.315Z,11.65
2019-03-12T11:29:28.595Z,13.38
2019-03-12T11:32:01.715Z,12.97
2019-03-12T11:34:33.980Z,21.02
2019-03-12T11:37:06.214Z,9.05
2019-03-12T11:39:38.589Z,10.05
2019-03-12T11:42:11.020Z,14.07
2019-03-12T11:44:43.591Z,10.00
2019-03-12T11:47:15.824Z,10.60
2019-03-12T11:49:48.536Z,11.60
2019-03-12T11:52:20.856Z,11.97
2019-03-12T11:54:53.125Z,11.53
2019-03-12T11:57:25.385Z,9.20
2019-03-12T11:59:57.678Z,9.35
2019-03-12T12:02:30.004Z,11.12
2019-03-12T12:05:02.314Z,9.85
2019-03-12T12:07:34.568Z,13.93
2019-03-12T12:10:08.379Z,10.80
2019-03-12T12:12:40.744Z,15.90
2019-03-12T12:15:13.836Z,7.67
2019-03-12T12:17:49.085Z,7.85
2019-03-12T12:20:29.774Z,11.53
2019-03-12T12:22:54.053Z,8.33
2019-03-12T12:25:26.303Z,9.75
2019-03-12T12:27:58.524Z,11.80
2019-03-12T12:30:30.785Z,9.13
2019-03-12T12:33:03.023Z,12.53
2019-03-12T12:35:35.268Z,13.60
2019-03-12T12:38:07.583Z,10.63
2019-03-12T12:40:39.938Z,10.98
2019-03-12T12:43:12.152Z,6.30
2019-03-12T12:45:44.391Z,5.67
2019-03-12T12:48:16.692Z,7.20
2019-03-12T12:51:01.874Z,4.85
2019-03-12T12:53:22.903Z,9.78
2019-03-12T12:55:55.127Z,9.38
2019-03-12T12:58:27.370Z,12.30
2019-03-12T13:00:59.656Z,8.78
2019-03-12T13:03:33.879Z,9.48
2019-03-12T13:06:06.135Z,7.00
2019-03-12T13:08:38.356Z,6.45
2019-03-12T13:11:10.679Z,6.60
2019-03-12T13:13:42.909Z,6.70
2019-03-12T13:16:24.443Z,11.28
2019-03-12T13:18:49.135Z,6.37
2019-03-12T13:21:21.375Z,8.80
2019-03-12T13:23:53.669Z,8.60
2019-03-12T13:26:25.919Z,5.65
2019-03-12T13:28:58.180Z,10.88
2019-03-12T13:31:30.516Z,8.70
2019-03-12T13:34:02.737Z,8.25
2019-03-12T13:36:34.979Z,8.83
2019-03-12T13:39:07.271Z,8.75
2019-03-12T13:41:39.541Z,8.03
2019-03-12T13:44:11.823Z,8.38
2019-03-12T13:46:44.081Z,7.62
2019-03-12T13:49:16.378Z,5.85
2019-03-12T13:51:48.812Z,12.37
2019-03-12T13:54:21.240Z,9.00
2019-03-12T13:56:53.492Z,7.50
2019-03-12T13:59:27.587Z,5.97
2019-03-12T14:01:59.684Z,10.45
2019-03-12T14:04:32.010Z,6.58
2019-03-12T14:07:04.264Z,7.58
2019-03-12T14:09:36.525Z,5.75
2019-03-12T14:12:08.827Z,3.50
2019-03-12T14:14:42.278Z,6.90
2019-03-12T14:17:17.179Z,5.25
2019-03-12T14:19:49.470Z,6.60
2019-03-12T14:22:21.737Z,5.33
2019-03-12T14:24:53.989Z,10.63
2019-03-12T14:27:26.216Z,5.37
2019-03-12T14:29:58.966Z,9.70
2019-03-12T14:32:31.485Z,9.28
2019-03-12T14:35:04.965Z,4.80
2019-03-12T14:37:37.204Z,6.20
2019-03-12T14:40:09.579Z,4.85
2019-03-12T14:42:41.845Z,9.38
2019-03-12T14:45:15.707Z,9.63
2019-03-12T14:47:48.072Z,4.42
2019-03-12T14:50:20.368Z,7.50
2019-03-12T14:53:00.229Z,5.62
2019-03-12T14:55:32.464Z,6.10
2019-03-12T14:58:04.794Z,5.37
2019-03-12T15:00:37.084Z,10.68
2019-03-12T15:03:09.327Z,5.95
2019-03-12T15:05:41.608Z,6.72
2019-03-12T15:08:13.845Z,3.52
2019-03-12T15:10:46.095Z,4.30
2019-03-12T15:13:18.363Z,19.27
2019-03-12T15:15:50.655Z,4.72
2019-03-12T15:18:22.890Z,5.67
2019-03-12T15:20:55.146Z,4.47
2019-03-12T15:23:27.393Z,6.65
2019-03-12T15:25:59.740Z,5.35
2019-03-12T15:28:32.109Z,3.58
2019-03-12T15:31:04.370Z,2.47
2019-03-12T15:33:36.662Z,2.92
2019-03-12T15:36:08.870Z,3.95
2019-03-12T15:38:41.135Z,2.87
2019-03-12T15:41:13.380Z,10.18
2019-03-12T15:43:46.026Z,5.50
2019-03-12T15:46:18.458Z,9.03
2019-03-12T15:48:50.707Z,8.70
2019-03-12T15:51:22.936Z,5.60
2019-03-12T15:53:55.201Z,10.85
2019-03-12T15:56:27.476Z,14.68
2019-03-12T15:58:59.762Z,5.30
2019-03-12T16:01:32.030Z,4.55
2019-03-12T16:04:04.352Z,4.80
2019-03-12T16:06:36.644Z,3.75
2019-03-12T16:09:09.017Z,6.45
2019-03-12T16:11:41.234Z,9.78
2019-03-12T16:14:13.486Z,4.87
2019-03-12T16:16:45.737Z,4.87
2019-03-12T16:19:18.042Z,7.08
2019-03-12T16:21:50.340Z,10.23
2019-03-12T16:24:22.612Z,14.15
2019-03-12T16:26:54.878Z,5.55
2019-03-12T16:29:27.123Z,5.20
2019-03-12T16:31:59.369Z,5.28
2019-03-12T16:34:31.641Z,8.85
2019-03-12T16:37:03.888Z,4.60
2019-03-12T16:39:36.135Z,7.35
2019-03-12T16:42:08.367Z,5.37
2019-03-12T16:44:40.640Z,9.63
2019-03-12T16:47:12.884Z,5.60
2019-03-12T16:49:45.453Z,5.78
2019-03-12T16:52:18.002Z,9.00
2019-03-12T16:54:51.629Z,10.63
2019-03-12T16:57:24.045Z,5.90
2019-03-12T16:59:56.341Z,7.80
2019-03-12T17:02:29.044Z,5.80
2019-03-12T17:05:03.993Z,7.03
2019-03-12T17:07:36.409Z,5.10
2019-03-12T17:10:15.608Z,7.97
2019-03-12T17:12:47.985Z,8.00
2019-03-12T17:15:24.512Z,5.60
2019-03-12T17:17:56.853Z,6.85
2019-03-12T17:20:29.115Z,4.17
2019-03-12T17:23:01.360Z,9.23
2019-03-12T17:25:33.737Z,5.15
2019-03-12T17:28:06.001Z,9.18
2019-03-12T17:30:38.269Z,6.37
2019-03-12T17:33:10.494Z,6.95
2019-03-12T17:35:43.001Z,7.33
2019-03-12T17:38:15.222Z,7.93
2019-03-12T17:40:47.476Z,10.58
2019-03-12T17:43:20.284Z,8.30
2019-03-12T17:45:52.626Z,4.72
2019-03-12T17:48:24.863Z,5.33
2019-03-12T17:50:57.112Z,5.33
2019-03-12T17:53:29.416Z,6.90
2019-03-12T17:56:01.651Z,9.15
2019-03-12T17:58:33.871Z,6.10
2019-03-12T18:01:06.127Z,6.83
2019-03-12T18:03:38.331Z,7.62
2019-03-12T18:06:10.575Z,5.20
2019-03-12T18:08:42.799Z,5.47
2019-03-12T18:11:15.059Z,7.60
2019-03-12T18:13:47.285Z,4.35
2019-03-12T18:16:19.827Z,6.03
2019-03-12T18:18:52.200Z,4.60
2019-03-12T18:21:24.590Z,4.55
2019-03-12T18:23:56.824Z,4.28
2019-03-12T18:26:29.067Z,4.25
2019-03-12T18:29:01.303Z,8.00
2019-03-12T18:31:34.495Z,11.10
2019-03-12T18:34:06.785Z,6.23
2019-03-12T18:36:39.011Z,5.62
2019-03-12T18:39:11.417Z,7.20
2019-03-12T18:41:45.526Z,3.80
2019-03-12T18:44:19.366Z,3.98
2019-03-12T18:46:53.180Z,6.78
2019-03-12T18:49:25.433Z,7.20
2019-03-12T18:51:57.802Z,7.70
2019-03-12T18:54:30.035Z,9.08
2019-03-12T18:57:02.387Z,8.80
2019-03-12T18:59:34.629Z,3.67
2019-03-12T19:02:06.881Z,5.35
2019-03-12T19:04:39.104Z,6.17
2019-03-12T19:07:13.282Z,8.53
2019-03-12T19:09:45.283Z,5.00
2019-03-12T19:12:17.512Z,7.80
2019-03-12T19:14:49.751Z,11.50
2019-03-12T19:20:36.768Z,5.42
2019-03-12T19:23:09.087Z,6.47
2019-03-12T19:25:42.360Z,8.25
2019-03-12T19:28:14.694Z,4.47
2019-03-12T19:30:46.976Z,3.58
2019-03-12T19:33:20.948Z,5.42
2019-03-12T19:35:53.280Z,4.53
2019-03-12T19:38:25.519Z,4.42
2019-03-12T19:40:57.914Z,2.60
2019-03-12T19:43:30.313Z,4.53
2019-03-12T19:46:02.523Z,4.35
2019-03-12T19:48:34.771Z,5.08
2019-03-12T19:51:07.010Z,4.37
2019-03-12T19:53:39.243Z,11.28
2019-03-12T19:56:11.520Z,5.03
2019-03-12T19:58:43.766Z,5.92
2019-03-12T20:01:16.078Z,6.20
2019-03-12T20:03:48.364Z,3.60
2019-03-12T20:06:20.720Z,4.60
2019-03-12T20:08:53.006Z,7.03
2019-03-12T20:11:42.027Z,5.40
2019-03-12T20:14:18.629Z,5.22
2019-03-12T20:17:09.855Z,5.53
2019-03-12T20:19:43.804Z,5.65
2019-03-12T20:22:29.450Z,4.78
2019-03-12T20:25:20.043Z,5.17
2019-03-12T20:27:53.802Z,5.85
2019-03-12T20:30:42.967Z,5.87
2019-03-12T20:33:17.074Z,7.33
2019-03-12T20:36:09.183Z,2.62
2019-03-12T20:39:04.808Z,3.40
2019-03-12T20:48:02.406Z,5.97
2019-03-12T21:00:07.665Z,9.10
2019-03-12T21:03:01.023Z,6.50
2019-03-12T21:05:48.248Z,4.45
2019-03-12T21:08:40.510Z,5.75
2019-03-12T21:11:40.004Z,8.18
2019-03-12T21:14:22.103Z,6.17
2019-03-12T21:17:15.497Z,6.12
2019-03-12T21:20:09.886Z,7.17
2019-03-12T21:25:38.842Z,6.55
2019-03-12T21:28:15.342Z,4.73
2019-03-12T21:30:47.661Z,3.45
2019-03-12T21:33:19.963Z,6.70
2019-03-12T21:35:52.337Z,7.62
2019-03-12T21:38:24.746Z,6.22
2019-03-12T21:40:57.014Z,7.30
2019-03-12T21:43:29.244Z,3.65
2019-03-12T21:46:01.460Z,2.60
2019-03-12T21:48:33.718Z,2.83
2019-03-12T21:51:05.939Z,0.60
2019-03-12T21:53:38.313Z,1.20
2019-03-12T21:56:10.526Z,0.40
2019-03-12T21:58:42.764Z,0.57
2019-03-12T22:01:15.053Z,0.75
2019-03-12T22:03:47.320Z,0.20
2019-03-12T22:06:19.561Z,0.60
2019-03-12T22:08:51.874Z,0.10
2019-03-12T22:11:24.086Z,1.07
2019-03-12T22:13:56.351Z,0.45
2019-03-12T22:16:28.619Z,0.82
2019-03-12T22:19:00.855Z,0.17
2019-03-12T22:21:37.694Z,0.10
2019-03-12T22:24:09.932Z,0.20
2019-03-12T22:26:42.267Z,0.93
2019-03-12T22:29:14.523Z,0.30
2019-03-12T22:31:46.738Z,0.30
2019-03-12T22:34:18.966Z,0.85
2019-03-12T22:36:51.188Z,0.45
2019-03-12T22:39:23.488Z,0.72
2019-03-12T22:41:55.707Z,2.05
2019-03-12T22:44:27.950Z,0.33
2019-03-12T22:47:00.183Z,0.70
2019-03-12T22:49:32.442Z,1.77
2019-03-12T22:52:04.651Z,0.53
2019-03-12T22:54:36.896Z,0.57
2019-03-12T22:57:09.196Z,2.27
2019-03-12T22:59:41.453Z,0.60
2019-03-12T23:02:13.682Z,0.40
2019-03-12T23:04:45.937Z,0.50
2019-03-12T23:07:18.152Z,0.70
2019-03-12T23:09:50.392Z,0.98
2019-03-12T23:12:22.607Z,0.75
2019-03-12T23:14:54.878Z,0.82
2019-03-12T23:17:27.150Z,3.12
2019-03-12T23:19:59.438Z,2.60
2019-03-12T23:22:31.660Z,1.00
2019-03-12T23:25:04.844Z,1.55
2019-03-12T23:27:37.133Z,1.45
2019-03-12T23:30:13.575Z,2.05
2019-03-12T23:32:45.881Z,0.95
2019-03-12T23:35:18.114Z,1.42
2019-03-12T23:37:50.353Z,1.35
2019-03-12T23:40:22.667Z,2.52
2019-03-12T23:42:54.887Z,1.10
2019-03-12T23:45:27.221Z,1.25
2019-03-12T23:47:59.451Z,1.95
2019-03-12T23:50:31.700Z,1.27
2019-03-12T23:53:03.988Z,2.60
2019-03-12T23:55:36.218Z,1.45
2019-03-12T23:58:08.464Z,1.12
